sensor_id;sensor_type;location;lat;lon;timestamp;P1;durP1;ratioP1;P2;durP2;ratioP2
11827;SDS011;5971;49.646;8.568;2024-01-11T00:00:02;25.33;;;10.73;;
11827;SDS011;5971;49.646;8.568;2024-01-11T00:03:04;26.17;;;11.02;;
11827;SDS011;5971;49.646;8.568;2024-01-11T00:06:05;24.55;;;11.35;;
11827;SDS011;5971;49.646;8.568;2024-01-11T00:09:07;20.13;;;9.10;;
11827;SDS011;5971;49.646;8.568;2024-01-11T00:12:08;22.60;;;9.90;;
11827;SDS011;5971;49.646;8.568;2024-01-11T00:15:09;22.08;;;9.93;;
11827;SDS011;5971;49.646;8.568;2024-01-11T00:18:11;24.88;;;11.32;;
11827;SDS011;5971;49.646;8.568;2024-01-11T00:21:12;23.40;;;10.23;;
11827;SDS011;5971;49.646;8.568;2024-01-11T00:24:14;25.10;;;10.80;;
11827;SDS011;5971;49.646;8.568;2024-01-11T00:27:15;26.63;;;10.75;;
11827;SDS011;5971;49.646;8.568;2024-01-11T00:30:16;22.27;;;10.90;;
11827;SDS011;5971;49.646;8.568;2024-01-11T00:33:18;24.88;;;9.68;;
11827;SDS011;5971;49.646;8.568;2024-01-11T00:36:19;29.80;;;10.45;;
11827;SDS011;5971;49.646;8.568;2024-01-11T00:39:21;20.27;;;9.27;;
11827;SDS011;5971;49.646;8.568;2024-01-11T00:42:23;19.30;;;9.27;;
11827;SDS011;5971;49.646;8.568;2024-01-11T00:45:24;22.33;;;10.98;;
11827;SDS011;5971;49.646;8.568;2024-01-11T00:48:25;20.73;;;8.68;;
11827;SDS011;5971;49.646;8.568;2024-01-11T00:51:27;27.63;;;10.85;;
11827;SDS011;5971;49.646;8.568;2024-01-11T00:54:28;22.00;;;9.00;;
11827;SDS011;5971;49.646;8.568;2024-01-11T00:57:30;21.75;;;9.10;;
11827;SDS011;5971;49.646;8.568;2024-01-11T01:00:31;16.17;;;8.55;;
11827;SDS011;5971;49.646;8.568;2024-01-11T01:03:32;19.00;;;9.23;;
11827;SDS011;5971;49.646;8.568;2024-01-11T01:06:34;24.90;;;8.88;;
11827;SDS011;5971;49.646;8.568;2024-01-11T01:09:35;23.45;;;8.20;;
11827;SDS011;5971;49.646;8.568;2024-01-11T01:12:36;21.63;;;9.60;;
11827;SDS011;5971;49.646;8.568;2024-01-11T01:15:38;25.35;;;10.55;;
11827;SDS011;5971;49.646;8.568;2024-01-11T01:18:39;24.40;;;10.65;;
11827;SDS011;5971;49.646;8.568;2024-01-11T01:21:41;21.70;;;10.20;;
11827;SDS011;5971;49.646;8.568;2024-01-11T01:24:42;18.40;;;8.02;;
11827;SDS011;5971;49.646;8.568;2024-01-11T01:27:43;17.00;;;8.02;;
11827;SDS011;5971;49.646;8.568;2024-01-11T01:30:45;19.23;;;8.95;;
11827;SDS011;5971;49.646;8.568;2024-01-11T01:33:46;20.15;;;9.43;;
11827;SDS011;5971;49.646;8.568;2024-01-11T01:36:47;20.85;;;9.60;;
11827;SDS011;5971;49.646;8.568;2024-01-11T01:39:49;21.83;;;8.43;;
11827;SDS011;5971;49.646;8.568;2024-01-11T01:42:50;19.38;;;7.85;;
11827;SDS011;5971;49.646;8.568;2024-01-11T01:45:59;22.45;;;9.25;;
11827;SDS011;5971;49.646;8.568;2024-01-11T01:49:01;26.73;;;10.38;;
11827;SDS011;5971;49.646;8.568;2024-01-11T01:52:03;23.58;;;10.38;;
11827;SDS011;5971;49.646;8.568;2024-01-11T01:55:05;24.17;;;10.13;;
11827;SDS011;5971;49.646;8.568;2024-01-11T01:58:07;21.05;;;8.45;;
11827;SDS011;5971;49.646;8.568;2024-01-11T02:01:09;23.17;;;9.50;;
11827;SDS011;5971;49.646;8.568;2024-01-11T02:04:12;23.77;;;8.98;;
11827;SDS011;5971;49.646;8.568;2024-01-11T02:07:14;25.45;;;10.60;;
11827;SDS011;5971;49.646;8.568;2024-01-11T02:10:15;26.52;;;9.77;;
11827;SDS011;5971;49.646;8.568;2024-01-11T02:13:17;23.95;;;9.88;;
11827;SDS011;5971;49.646;8.568;2024-01-11T02:16:19;18.55;;;8.27;;
11827;SDS011;5971;49.646;8.568;2024-01-11T02:19:21;14.77;;;6.93;;
11827;SDS011;5971;49.646;8.568;2024-01-11T02:22:29;17.13;;;7.90;;
11827;SDS011;5971;49.646;8.568;2024-01-11T02:25:32;14.60;;;7.20;;
11827;SDS011;5971;49.646;8.568;2024-01-11T02:28:33;24.70;;;9.57;;
11827;SDS011;5971;49.646;8.568;2024-01-11T02:31:34;25.30;;;11.68;;
11827;SDS011;5971;49.646;8.568;2024-01-11T02:34:35;24.48;;;10.13;;
11827;SDS011;5971;49.646;8.568;2024-01-11T02:37:37;27.17;;;9.57;;
11827;SDS011;5971;49.646;8.568;2024-01-11T02:40:40;19.80;;;9.73;;
11827;SDS011;5971;49.646;8.568;2024-01-11T02:43:46;21.42;;;8.27;;
11827;SDS011;5971;49.646;8.568;2024-01-11T02:46:47;19.60;;;9.18;;
11827;SDS011;5971;49.646;8.568;2024-01-11T02:49:48;19.77;;;9.10;;
11827;SDS011;5971;49.646;8.568;2024-01-11T02:52:50;24.63;;;9.93;;
11827;SDS011;5971;49.646;8.568;2024-01-11T02:55:52;16.55;;;8.10;;
11827;SDS011;5971;49.646;8.568;2024-01-11T02:58:53;24.38;;;9.43;;
11827;SDS011;5971;49.646;8.568;2024-01-11T03:01:54;20.17;;;8.07;;
11827;SDS011;5971;49.646;8.568;2024-01-11T03:04:56;23.83;;;9.57;;
11827;SDS011;5971;49.646;8.568;2024-01-11T03:07:58;19.13;;;8.18;;
11827;SDS011;5971;49.646;8.568;2024-01-11T03:10:59;15.05;;;7.13;;
11827;SDS011;5971;49.646;8.568;2024-01-11T03:14:00;22.27;;;9.80;;
11827;SDS011;5971;49.646;8.568;2024-01-11T03:17:04;22.92;;;10.02;;
11827;SDS011;5971;49.646;8.568;2024-01-11T03:20:06;22.58;;;8.13;;
11827;SDS011;5971;49.646;8.568;2024-01-11T03:23:08;17.27;;;7.95;;
11827;SDS011;5971;49.646;8.568;2024-01-11T03:26:15;24.73;;;10.32;;
11827;SDS011;5971;49.646;8.568;2024-01-11T03:29:17;17.75;;;9.00;;
11827;SDS011;5971;49.646;8.568;2024-01-11T03:32:19;13.23;;;6.18;;
11827;SDS011;5971;49.646;8.568;2024-01-11T03:35:20;20.08;;;9.13;;
11827;SDS011;5971;49.646;8.568;2024-01-11T03:38:21;18.52;;;8.43;;
11827;SDS011;5971;49.646;8.568;2024-01-11T03:41:23;21.08;;;9.20;;
11827;SDS011;5971;49.646;8.568;2024-01-11T03:44:24;21.92;;;9.98;;
11827;SDS011;5971;49.646;8.568;2024-01-11T03:47:26;25.60;;;10.52;;
11827;SDS011;5971;49.646;8.568;2024-01-11T03:50:27;22.08;;;9.35;;
11827;SDS011;5971;49.646;8.568;2024-01-11T03:53:29;14.55;;;7.38;;
11827;SDS011;5971;49.646;8.568;2024-01-11T03:56:30;15.20;;;7.43;;
11827;SDS011;5971;49.646;8.568;2024-01-11T03:59:31;22.73;;;9.43;;
11827;SDS011;5971;49.646;8.568;2024-01-11T04:02:33;20.27;;;8.23;;
11827;SDS011;5971;49.646;8.568;2024-01-11T04:05:34;22.23;;;8.95;;
11827;SDS011;5971;49.646;8.568;2024-01-11T04:08:36;22.17;;;9.70;;
11827;SDS011;5971;49.646;8.568;2024-01-11T04:11:37;19.58;;;8.43;;
11827;SDS011;5971;49.646;8.568;2024-01-11T04:14:39;23.55;;;8.90;;
11827;SDS011;5971;49.646;8.568;2024-01-11T04:17:43;19.92;;;8.45;;
11827;SDS011;5971;49.646;8.568;2024-01-11T04:20:45;23.05;;;10.00;;
11827;SDS011;5971;49.646;8.568;2024-01-11T04:23:46;20.05;;;8.98;;
11827;SDS011;5971;49.646;8.568;2024-01-11T04:26:48;20.00;;;8.73;;
11827;SDS011;5971;49.646;8.568;2024-01-11T04:29:49;25.73;;;8.85;;
11827;SDS011;5971;49.646;8.568;2024-01-11T04:32:50;19.80;;;8.45;;
11827;SDS011;5971;49.646;8.568;2024-01-11T04:35:52;23.05;;;9.13;;
11827;SDS011;5971;49.646;8.568;2024-01-11T04:38:53;21.67;;;8.93;;
11827;SDS011;5971;49.646;8.568;2024-01-11T04:41:55;25.15;;;10.32;;
11827;SDS011;5971;49.646;8.568;2024-01-11T04:44:56;23.63;;;9.85;;
11827;SDS011;5971;49.646;8.568;2024-01-11T04:47:57;26.33;;;9.95;;
11827;SDS011;5971;49.646;8.568;2024-01-11T04:50:59;21.30;;;8.00;;
11827;SDS011;5971;49.646;8.568;2024-01-11T04:54:00;19.90;;;8.55;;
11827;SDS011;5971;49.646;8.568;2024-01-11T04:57:02;22.80;;;9.82;;
11827;SDS011;5971;49.646;8.568;2024-01-11T05:00:04;22.92;;;9.93;;
11827;SDS011;5971;49.646;8.568;2024-01-11T05:03:06;21.17;;;8.85;;
11827;SDS011;5971;49.646;8.568;2024-01-11T05:06:07;23.42;;;10.18;;
11827;SDS011;5971;49.646;8.568;2024-01-11T05:09:09;21.15;;;10.18;;
11827;SDS011;5971;49.646;8.568;2024-01-11T05:12:10;21.85;;;9.73;;
11827;SDS011;5971;49.646;8.568;2024-01-11T05:15:11;22.63;;;9.05;;
11827;SDS011;5971;49.646;8.568;2024-01-11T05:18:13;16.25;;;6.28;;
11827;SDS011;5971;49.646;8.568;2024-01-11T05:21:15;24.83;;;10.05;;
11827;SDS011;5971;49.646;8.568;2024-01-11T05:24:16;28.65;;;11.63;;
11827;SDS011;5971;49.646;8.568;2024-01-11T05:27:17;12.60;;;6.75;;
11827;SDS011;5971;49.646;8.568;2024-01-11T05:30:19;22.08;;;9.48;;
11827;SDS011;5971;49.646;8.568;2024-01-11T05:33:20;22.52;;;10.88;;
11827;SDS011;5971;49.646;8.568;2024-01-11T05:36:22;27.13;;;9.50;;
11827;SDS011;5971;49.646;8.568;2024-01-11T05:39:23;23.40;;;10.15;;
11827;SDS011;5971;49.646;8.568;2024-01-11T05:42:24;20.45;;;9.65;;
11827;SDS011;5971;49.646;8.568;2024-01-11T05:45:26;29.95;;;10.18;;
11827;SDS011;5971;49.646;8.568;2024-01-11T05:48:41;14.48;;;5.65;;
11827;SDS011;5971;49.646;8.568;2024-01-11T05:51:43;20.50;;;9.25;;
11827;SDS011;5971;49.646;8.568;2024-01-11T05:54:44;24.70;;;10.10;;
11827;SDS011;5971;49.646;8.568;2024-01-11T05:57:46;19.50;;;8.40;;
11827;SDS011;5971;49.646;8.568;2024-01-11T06:00:47;28.30;;;11.00;;
11827;SDS011;5971;49.646;8.568;2024-01-11T06:03:48;23.20;;;8.40;;
11827;SDS011;5971;49.646;8.568;2024-01-11T06:06:50;16.20;;;8.52;;
11827;SDS011;5971;49.646;8.568;2024-01-11T06:09:51;19.20;;;8.30;;
11827;SDS011;5971;49.646;8.568;2024-01-11T06:12:54;24.02;;;9.38;;
11827;SDS011;5971;49.646;8.568;2024-01-11T06:15:57;21.05;;;9.73;;
11827;SDS011;5971;49.646;8.568;2024-01-11T06:18:59;32.47;;;13.32;;
11827;SDS011;5971;49.646;8.568;2024-01-11T06:22:00;25.45;;;10.07;;
11827;SDS011;5971;49.646;8.568;2024-01-11T06:25:01;14.57;;;5.63;;
11827;SDS011;5971;49.646;8.568;2024-01-11T06:28:03;25.13;;;11.68;;
11827;SDS011;5971;49.646;8.568;2024-01-11T06:31:05;26.73;;;12.00;;
11827;SDS011;5971;49.646;8.568;2024-01-11T06:34:06;31.60;;;12.23;;
11827;SDS011;5971;49.646;8.568;2024-01-11T06:37:08;21.52;;;8.52;;
11827;SDS011;5971;49.646;8.568;2024-01-11T06:40:09;28.13;;;11.05;;
11827;SDS011;5971;49.646;8.568;2024-01-11T06:43:10;15.88;;;6.80;;
11827;SDS011;5971;49.646;8.568;2024-01-11T06:46:12;22.75;;;10.23;;
11827;SDS011;5971;49.646;8.568;2024-01-11T06:49:14;14.32;;;7.18;;
11827;SDS011;5971;49.646;8.568;2024-01-11T06:52:15;23.80;;;9.15;;
11827;SDS011;5971;49.646;8.568;2024-01-11T06:55:16;19.20;;;9.90;;
11827;SDS011;5971;49.646;8.568;2024-01-11T06:58:20;16.27;;;8.43;;
11827;SDS011;5971;49.646;8.568;2024-01-11T07:01:22;21.02;;;10.15;;
11827;SDS011;5971;49.646;8.568;2024-01-11T07:04:24;10.75;;;4.25;;
11827;SDS011;5971;49.646;8.568;2024-01-11T07:07:25;15.93;;;9.10;;
11827;SDS011;5971;49.646;8.568;2024-01-11T07:10:27;29.67;;;11.68;;
11827;SDS011;5971;49.646;8.568;2024-01-11T07:13:29;17.70;;;7.88;;
11827;SDS011;5971;49.646;8.568;2024-01-11T07:16:30;29.80;;;10.75;;
11827;SDS011;5971;49.646;8.568;2024-01-11T07:19:32;17.08;;;9.25;;
11827;SDS011;5971;49.646;8.568;2024-01-11T07:22:33;26.15;;;11.10;;
11827;SDS011;5971;49.646;8.568;2024-01-11T07:25:35;25.48;;;11.10;;
11827;SDS011;5971;49.646;8.568;2024-01-11T07:28:36;28.90;;;12.13;;
11827;SDS011;5971;49.646;8.568;2024-01-11T07:31:38;25.58;;;10.75;;
11827;SDS011;5971;49.646;8.568;2024-01-11T07:34:39;27.02;;;11.40;;
11827;SDS011;5971;49.646;8.568;2024-01-11T07:37:40;32.05;;;13.27;;
11827;SDS011;5971;49.646;8.568;2024-01-11T07:40:42;23.88;;;11.05;;
11827;SDS011;5971;49.646;8.568;2024-01-11T07:43:44;23.42;;;8.55;;
11827;SDS011;5971;49.646;8.568;2024-01-11T07:46:54;20.67;;;8.95;;
11827;SDS011;5971;49.646;8.568;2024-01-11T07:50:02;29.10;;;12.13;;
11827;SDS011;5971;49.646;8.568;2024-01-11T07:53:04;24.42;;;9.65;;
11827;SDS011;5971;49.646;8.568;2024-01-11T07:56:06;30.25;;;13.38;;
11827;SDS011;5971;49.646;8.568;2024-01-11T07:59:08;26.33;;;12.18;;
11827;SDS011;5971;49.646;8.568;2024-01-11T08:02:12;30.88;;;13.98;;
11827;SDS011;5971;49.646;8.568;2024-01-11T08:05:14;28.02;;;12.77;;
11827;SDS011;5971;49.646;8.568;2024-01-11T08:08:15;29.83;;;12.63;;
11827;SDS011;5971;49.646;8.568;2024-01-11T08:11:17;31.65;;;13.50;;
11827;SDS011;5971;49.646;8.568;2024-01-11T08:14:19;28.25;;;9.68;;
11827;SDS011;5971;49.646;8.568;2024-01-11T08:17:20;33.00;;;12.07;;
11827;SDS011;5971;49.646;8.568;2024-01-11T08:20:22;28.25;;;11.93;;
11827;SDS011;5971;49.646;8.568;2024-01-11T08:23:23;27.75;;;12.88;;
11827;SDS011;5971;49.646;8.568;2024-01-11T08:26:25;28.77;;;11.25;;
11827;SDS011;5971;49.646;8.568;2024-01-11T08:29:26;26.83;;;12.07;;
11827;SDS011;5971;49.646;8.568;2024-01-11T08:32:29;26.17;;;11.75;;
11827;SDS011;5971;49.646;8.568;2024-01-11T08:35:32;28.50;;;11.40;;
11827;SDS011;5971;49.646;8.568;2024-01-11T08:38:34;26.73;;;10.82;;
11827;SDS011;5971;49.646;8.568;2024-01-11T08:41:37;25.38;;;11.38;;
11827;SDS011;5971;49.646;8.568;2024-01-11T08:44:42;33.30;;;13.43;;
11827;SDS011;5971;49.646;8.568;2024-01-11T08:47:44;36.50;;;14.73;;
11827;SDS011;5971;49.646;8.568;2024-01-11T08:50:45;21.67;;;8.23;;
11827;SDS011;5971;49.646;8.568;2024-01-11T08:53:47;35.10;;;12.52;;
11827;SDS011;5971;49.646;8.568;2024-01-11T08:56:48;30.75;;;12.23;;
11827;SDS011;5971;49.646;8.568;2024-01-11T08:59:50;32.17;;;12.75;;
11827;SDS011;5971;49.646;8.568;2024-01-11T09:02:51;34.75;;;13.68;;
11827;SDS011;5971;49.646;8.568;2024-01-11T09:05:52;27.95;;;10.93;;
11827;SDS011;5971;49.646;8.568;2024-01-11T09:11:59;21.52;;;10.98;;
11827;SDS011;5971;49.646;8.568;2024-01-11T09:15:01;31.50;;;12.93;;
11827;SDS011;5971;49.646;8.568;2024-01-11T09:18:02;17.98;;;7.45;;
11827;SDS011;5971;49.646;8.568;2024-01-11T09:21:04;21.52;;;8.95;;
11827;SDS011;5971;49.646;8.568;2024-01-11T09:24:05;20.02;;;7.88;;
11827;SDS011;5971;49.646;8.568;2024-01-11T09:27:07;27.90;;;11.40;;
11827;SDS011;5971;49.646;8.568;2024-01-11T09:30:08;36.70;;;13.18;;
11827;SDS011;5971;49.646;8.568;2024-01-11T09:33:10;29.80;;;13.45;;
11827;SDS011;5971;49.646;8.568;2024-01-11T09:36:12;22.67;;;10.23;;
11827;SDS011;5971;49.646;8.568;2024-01-11T09:39:17;32.25;;;12.73;;
11827;SDS011;5971;49.646;8.568;2024-01-11T09:42:19;18.08;;;8.60;;
11827;SDS011;5971;49.646;8.568;2024-01-11T09:45:20;30.88;;;14.02;;
11827;SDS011;5971;49.646;8.568;2024-01-11T09:48:22;26.25;;;10.68;;
11827;SDS011;5971;49.646;8.568;2024-01-11T09:51:26;28.38;;;12.40;;
11827;SDS011;5971;49.646;8.568;2024-01-11T09:54:28;33.33;;;14.65;;
11827;SDS011;5971;49.646;8.568;2024-01-11T09:57:33;23.67;;;9.65;;
11827;SDS011;5971;49.646;8.568;2024-01-11T10:00:38;24.15;;;9.75;;
11827;SDS011;5971;49.646;8.568;2024-01-11T10:03:40;27.65;;;9.77;;
11827;SDS011;5971;49.646;8.568;2024-01-11T10:06:43;35.30;;;13.48;;
11827;SDS011;5971;49.646;8.568;2024-01-11T10:09:44;30.67;;;14.32;;
11827;SDS011;5971;49.646;8.568;2024-01-11T10:12:46;34.15;;;15.25;;
11827;SDS011;5971;49.646;8.568;2024-01-11T10:15:48;32.03;;;13.77;;
11827;SDS011;5971;49.646;8.568;2024-01-11T10:18:49;40.25;;;14.77;;
11827;SDS011;5971;49.646;8.568;2024-01-11T10:21:54;38.70;;;14.63;;
11827;SDS011;5971;49.646;8.568;2024-01-11T10:25:07;27.25;;;12.13;;
11827;SDS011;5971;49.646;8.568;2024-01-11T10:28:09;29.25;;;13.60;;
11827;SDS011;5971;49.646;8.568;2024-01-11T10:31:14;31.98;;;12.25;;
11827;SDS011;5971;49.646;8.568;2024-01-11T10:34:19;34.58;;;14.32;;
11827;SDS011;5971;49.646;8.568;2024-01-11T10:37:21;35.95;;;14.85;;
11827;SDS011;5971;49.646;8.568;2024-01-11T10:40:23;32.33;;;13.20;;
11827;SDS011;5971;49.646;8.568;2024-01-11T10:43:26;31.63;;;12.48;;
11827;SDS011;5971;49.646;8.568;2024-01-11T10:46:28;37.10;;;12.95;;
11827;SDS011;5971;49.646;8.568;2024-01-11T10:49:30;33.03;;;13.38;;
11827;SDS011;5971;49.646;8.568;2024-01-11T10:52:34;29.65;;;12.85;;
11827;SDS011;5971;49.646;8.568;2024-01-11T10:55:37;33.17;;;13.98;;
11827;SDS011;5971;49.646;8.568;2024-01-11T10:58:40;29.80;;;11.82;;
11827;SDS011;5971;49.646;8.568;2024-01-11T11:01:41;38.95;;;14.35;;
11827;SDS011;5971;49.646;8.568;2024-01-11T11:04:43;34.65;;;12.85;;
11827;SDS011;5971;49.646;8.568;2024-01-11T11:07:44;33.40;;;14.32;;
11827;SDS011;5971;49.646;8.568;2024-01-11T11:10:46;35.35;;;15.95;;
11827;SDS011;5971;49.646;8.568;2024-01-11T11:13:49;30.40;;;14.88;;
11827;SDS011;5971;49.646;8.568;2024-01-11T11:16:51;32.58;;;14.55;;
11827;SDS011;5971;49.646;8.568;2024-01-11T11:19:53;34.20;;;15.82;;
11827;SDS011;5971;49.646;8.568;2024-01-11T11:23:07;26.58;;;13.25;;
11827;SDS011;5971;49.646;8.568;2024-01-11T11:26:13;33.38;;;15.30;;
11827;SDS011;5971;49.646;8.568;2024-01-11T11:29:15;33.25;;;15.80;;
11827;SDS011;5971;49.646;8.568;2024-01-11T11:32:16;34.67;;;17.10;;
11827;SDS011;5971;49.646;8.568;2024-01-11T11:35:22;32.45;;;17.13;;
11827;SDS011;5971;49.646;8.568;2024-01-11T11:38:25;32.45;;;14.68;;
11827;SDS011;5971;49.646;8.568;2024-01-11T11:41:27;32.53;;;15.18;;
11827;SDS011;5971;49.646;8.568;2024-01-11T11:44:28;29.25;;;14.32;;
11827;SDS011;5971;49.646;8.568;2024-01-11T11:47:33;30.52;;;16.05;;
11827;SDS011;5971;49.646;8.568;2024-01-11T11:50:35;32.78;;;14.65;;
11827;SDS011;5971;49.646;8.568;2024-01-11T11:53:38;32.47;;;15.85;;
11827;SDS011;5971;49.646;8.568;2024-01-11T11:56:40;29.27;;;14.30;;
11827;SDS011;5971;49.646;8.568;2024-01-11T11:59:42;31.63;;;15.60;;
11827;SDS011;5971;49.646;8.568;2024-01-11T12:02:44;33.67;;;16.38;;
11827;SDS011;5971;49.646;8.568;2024-01-11T12:05:45;31.35;;;16.70;;
11827;SDS011;5971;49.646;8.568;2024-01-11T12:08:47;32.50;;;16.48;;
11827;SDS011;5971;49.646;8.568;2024-01-11T12:11:48;32.08;;;16.65;;
11827;SDS011;5971;49.646;8.568;2024-01-11T12:15:03;32.65;;;15.18;;
11827;SDS011;5971;49.646;8.568;2024-01-11T12:18:05;33.30;;;17.35;;
11827;SDS011;5971;49.646;8.568;2024-01-11T12:21:08;29.73;;;15.45;;
11827;SDS011;5971;49.646;8.568;2024-01-11T12:24:09;28.13;;;15.57;;
11827;SDS011;5971;49.646;8.568;2024-01-11T12:27:11;29.90;;;16.25;;
11827;SDS011;5971;49.646;8.568;2024-01-11T12:30:12;29.38;;;16.00;;
11827;SDS011;5971;49.646;8.568;2024-01-11T12:33:18;29.48;;;15.73;;
11827;SDS011;5971;49.646;8.568;2024-01-11T12:36:20;33.40;;;16.50;;
11827;SDS011;5971;49.646;8.568;2024-01-11T12:39:24;29.33;;;15.38;;
11827;SDS011;5971;49.646;8.568;2024-01-11T12:42:26;29.20;;;15.57;;
11827;SDS011;5971;49.646;8.568;2024-01-11T12:45:28;31.83;;;16.20;;
11827;SDS011;5971;49.646;8.568;2024-01-11T12:48:31;33.42;;;14.95;;
11827;SDS011;5971;49.646;8.568;2024-01-11T12:51:32;29.17;;;16.02;;
11827;SDS011;5971;49.646;8.568;2024-01-11T12:57:38;30.30;;;15.80;;
11827;SDS011;5971;49.646;8.568;2024-01-11T13:00:39;33.17;;;16.52;;
11827;SDS011;5971;49.646;8.568;2024-01-11T13:03:43;30.13;;;14.57;;
11827;SDS011;5971;49.646;8.568;2024-01-11T13:06:45;28.60;;;14.85;;
11827;SDS011;5971;49.646;8.568;2024-01-11T13:09:47;27.83;;;14.70;;
11827;SDS011;5971;49.646;8.568;2024-01-11T13:12:48;28.25;;;14.93;;
11827;SDS011;5971;49.646;8.568;2024-01-11T13:16:01;31.52;;;14.93;;
11827;SDS011;5971;49.646;8.568;2024-01-11T13:19:05;28.63;;;15.07;;
11827;SDS011;5971;49.646;8.568;2024-01-11T13:22:24;29.98;;;15.07;;
11827;SDS011;5971;49.646;8.568;2024-01-11T13:25:26;29.45;;;15.38;;
11827;SDS011;5971;49.646;8.568;2024-01-11T13:28:27;29.83;;;15.13;;
11827;SDS011;5971;49.646;8.568;2024-01-11T13:31:28;28.98;;;13.30;;
11827;SDS011;5971;49.646;8.568;2024-01-11T13:34:30;28.27;;;14.20;;
11827;SDS011;5971;49.646;8.568;2024-01-11T13:37:32;33.08;;;15.95;;
11827;SDS011;5971;49.646;8.568;2024-01-11T13:40:33;30.83;;;15.68;;
11827;SDS011;5971;49.646;8.568;2024-01-11T13:43:35;31.38;;;15.90;;
11827;SDS011;5971;49.646;8.568;2024-01-11T13:46:36;32.67;;;16.00;;
11827;SDS011;5971;49.646;8.568;2024-01-11T13:49:38;35.17;;;17.25;;
11827;SDS011;5971;49.646;8.568;2024-01-11T13:52:39;34.45;;;16.88;;
11827;SDS011;5971;49.646;8.568;2024-01-11T13:55:42;33.45;;;16.60;;
11827;SDS011;5971;49.646;8.568;2024-01-11T13:58:44;31.13;;;14.13;;
11827;SDS011;5971;49.646;8.568;2024-01-11T14:01:46;31.23;;;15.38;;
11827;SDS011;5971;49.646;8.568;2024-01-11T14:04:48;29.02;;;15.05;;
11827;SDS011;5971;49.646;8.568;2024-01-11T14:07:49;30.38;;;15.07;;
11827;SDS011;5971;49.646;8.568;2024-01-11T14:10:55;28.50;;;14.70;;
11827;SDS011;5971;49.646;8.568;2024-01-11T14:13:57;32.88;;;15.02;;
11827;SDS011;5971;49.646;8.568;2024-01-11T14:16:58;30.08;;;14.68;;
11827;SDS011;5971;49.646;8.568;2024-01-11T14:20:00;32.35;;;15.02;;
11827;SDS011;5971;49.646;8.568;2024-01-11T14:23:03;31.35;;;14.05;;
11827;SDS011;5971;49.646;8.568;2024-01-11T14:26:04;28.08;;;13.38;;
11827;SDS011;5971;49.646;8.568;2024-01-11T14:29:06;28.20;;;13.30;;
11827;SDS011;5971;49.646;8.568;2024-01-11T14:32:07;28.98;;;14.98;;
11827;SDS011;5971;49.646;8.568;2024-01-11T14:35:09;24.50;;;10.93;;
11827;SDS011;5971;49.646;8.568;2024-01-11T14:38:10;28.02;;;14.18;;
11827;SDS011;5971;49.646;8.568;2024-01-11T14:41:13;33.45;;;15.15;;
11827;SDS011;5971;49.646;8.568;2024-01-11T14:44:15;36.17;;;16.02;;
11827;SDS011;5971;49.646;8.568;2024-01-11T14:47:16;33.45;;;14.52;;
11827;SDS011;5971;49.646;8.568;2024-01-11T14:50:17;28.73;;;14.07;;
11827;SDS011;5971;49.646;8.568;2024-01-11T14:53:19;37.63;;;15.95;;
11827;SDS011;5971;49.646;8.568;2024-01-11T14:56:20;31.73;;;13.95;;
11827;SDS011;5971;49.646;8.568;2024-01-11T14:59:22;27.38;;;12.93;;
11827;SDS011;5971;49.646;8.568;2024-01-11T15:02:24;29.45;;;13.52;;
11827;SDS011;5971;49.646;8.568;2024-01-11T15:05:25;32.15;;;13.75;;
11827;SDS011;5971;49.646;8.568;2024-01-11T15:08:27;32.92;;;14.32;;
11827;SDS011;5971;49.646;8.568;2024-01-11T15:11:28;31.25;;;12.27;;
11827;SDS011;5971;49.646;8.568;2024-01-11T15:14:30;39.63;;;15.30;;
11827;SDS011;5971;49.646;8.568;2024-01-11T15:17:32;34.03;;;14.55;;
11827;SDS011;5971;49.646;8.568;2024-01-11T15:20:33;35.53;;;15.60;;
11827;SDS011;5971;49.646;8.568;2024-01-11T15:23:35;41.97;;;18.00;;
11827;SDS011;5971;49.646;8.568;2024-01-11T15:26:36;37.45;;;14.50;;
11827;SDS011;5971;49.646;8.568;2024-01-11T15:29:38;37.20;;;15.48;;
11827;SDS011;5971;49.646;8.568;2024-01-11T15:32:41;39.13;;;15.38;;
11827;SDS011;5971;49.646;8.568;2024-01-11T15:35:44;34.80;;;15.38;;
11827;SDS011;5971;49.646;8.568;2024-01-11T15:38:45;41.28;;;16.80;;
11827;SDS011;5971;49.646;8.568;2024-01-11T15:41:46;47.13;;;17.77;;
11827;SDS011;5971;49.646;8.568;2024-01-11T15:44:48;37.55;;;13.65;;
11827;SDS011;5971;49.646;8.568;2024-01-11T15:47:51;33.78;;;13.88;;
11827;SDS011;5971;49.646;8.568;2024-01-11T15:50:52;28.70;;;12.50;;
11827;SDS011;5971;49.646;8.568;2024-01-11T15:53:56;31.00;;;12.73;;
11827;SDS011;5971;49.646;8.568;2024-01-11T15:56:57;28.20;;;12.38;;
11827;SDS011;5971;49.646;8.568;2024-01-11T15:59:59;34.30;;;11.80;;
11827;SDS011;5971;49.646;8.568;2024-01-11T16:03:01;33.42;;;13.90;;
11827;SDS011;5971;49.646;8.568;2024-01-11T16:06:02;38.75;;;17.13;;
11827;SDS011;5971;49.646;8.568;2024-01-11T16:09:04;41.65;;;15.98;;
11827;SDS011;5971;49.646;8.568;2024-01-11T16:12:07;43.10;;;16.60;;
11827;SDS011;5971;49.646;8.568;2024-01-11T16:15:08;37.08;;;15.82;;
11827;SDS011;5971;49.646;8.568;2024-01-11T16:18:11;32.97;;;14.07;;
11827;SDS011;5971;49.646;8.568;2024-01-11T16:21:12;31.45;;;13.52;;
11827;SDS011;5971;49.646;8.568;2024-01-11T16:24:14;32.97;;;12.93;;
11827;SDS011;5971;49.646;8.568;2024-01-11T16:27:16;37.65;;;14.13;;
11827;SDS011;5971;49.646;8.568;2024-01-11T16:30:17;35.08;;;13.18;;
11827;SDS011;5971;49.646;8.568;2024-01-11T16:33:19;35.40;;;12.98;;
11827;SDS011;5971;49.646;8.568;2024-01-11T16:36:20;31.65;;;14.52;;
11827;SDS011;5971;49.646;8.568;2024-01-11T16:39:22;26.38;;;12.07;;
11827;SDS011;5971;49.646;8.568;2024-01-11T16:42:23;29.05;;;13.23;;
11827;SDS011;5971;49.646;8.568;2024-01-11T16:45:25;30.50;;;12.50;;
11827;SDS011;5971;49.646;8.568;2024-01-11T16:48:27;35.72;;;13.48;;
11827;SDS011;5971;49.646;8.568;2024-01-11T16:51:29;31.23;;;13.98;;
11827;SDS011;5971;49.646;8.568;2024-01-11T16:54:31;38.15;;;14.13;;
11827;SDS011;5971;49.646;8.568;2024-01-11T16:57:32;36.05;;;14.55;;
11827;SDS011;5971;49.646;8.568;2024-01-11T17:00:33;31.35;;;13.43;;
11827;SDS011;5971;49.646;8.568;2024-01-11T17:03:35;32.75;;;13.48;;
11827;SDS011;5971;49.646;8.568;2024-01-11T17:06:37;33.65;;;14.77;;
11827;SDS011;5971;49.646;8.568;2024-01-11T17:09:38;37.13;;;15.00;;
11827;SDS011;5971;49.646;8.568;2024-01-11T17:12:40;24.90;;;11.77;;
11827;SDS011;5971;49.646;8.568;2024-01-11T17:15:41;35.95;;;12.77;;
11827;SDS011;5971;49.646;8.568;2024-01-11T17:18:43;32.28;;;13.35;;
11827;SDS011;5971;49.646;8.568;2024-01-11T17:21:44;42.40;;;16.90;;
11827;SDS011;5971;49.646;8.568;2024-01-11T17:24:46;34.17;;;14.60;;
11827;SDS011;5971;49.646;8.568;2024-01-11T17:27:47;32.30;;;14.70;;
11827;SDS011;5971;49.646;8.568;2024-01-11T17:30:48;35.20;;;15.07;;
11827;SDS011;5971;49.646;8.568;2024-01-11T17:33:50;36.22;;;14.60;;
11827;SDS011;5971;49.646;8.568;2024-01-11T17:36:51;40.58;;;15.40;;
11827;SDS011;5971;49.646;8.568;2024-01-11T17:39:53;28.85;;;12.13;;
11827;SDS011;5971;49.646;8.568;2024-01-11T17:42:58;36.05;;;14.88;;
11827;SDS011;5971;49.646;8.568;2024-01-11T17:45:59;30.08;;;12.75;;
11827;SDS011;5971;49.646;8.568;2024-01-11T17:49:00;36.03;;;14.32;;
11827;SDS011;5971;49.646;8.568;2024-01-11T17:52:03;61.00;;;22.10;;
11827;SDS011;5971;49.646;8.568;2024-01-11T17:55:04;40.28;;;15.55;;
11827;SDS011;5971;49.646;8.568;2024-01-11T17:58:06;41.25;;;16.95;;
11827;SDS011;5971;49.646;8.568;2024-01-11T18:01:07;34.03;;;14.77;;
11827;SDS011;5971;49.646;8.568;2024-01-11T18:04:09;53.15;;;24.17;;
11827;SDS011;5971;49.646;8.568;2024-01-11T18:07:11;34.35;;;14.07;;
11827;SDS011;5971;49.646;8.568;2024-01-11T18:10:12;39.47;;;17.70;;